Terminal Aerodrome Forecast
Issued by NWS Buffalo, NY

Home | Current Version | Previous Version | Text Only | Print | Product List | Glossary On
Versions: 1 2 3 4 5 6 7 8 9 10 11 12 13 14 15 16 17 18 19 20 21 22 23 24 25 26
000
FTUS41 KBUF 011427 AAB
TAFBUF
TAF AMD
KBUF 011427Z 0114/0212 24011KT P6SM BKN025
     FM011700 25014G21KT P6SM BKN035
     FM012300 25011KT P6SM BKN035
     FM020700 00000KT 4SM BR SCT250=

USA.gov is the U.S. government's official web portal to all federal, state and local government web resources and services.